Latest Weather Observations for Bellambi

IDN60901

Issued at 7:25 pm EST Saturday 23 August 2014 (issued every 10 minutes, with the page automatically refreshed every 10 minutes)

About weather observations | Map of Sydney area stations | Latest observations for Sydney area | Other Formats
Station Details ID: 068228 Name: BELLAMBI AWS Lat: -34.37 Lon: 150.93 Height: 10.0 m
Data from the previous 72 hours. | See also: Recent months at Bellambi
Date/Time
EST
Tmp

°C
App
Tmp
°C
Dew
Point
°C
Rel
Hum
%
Delta-T

°C
Wind Press
QNH
hPa
Press
MSL
hPa
Rain
since
9 am
mm
Dir
 
Spd
km/h
Gust
km/h
Spd
kts
Gust
kts
23/07:12pm 14.4 14.5 12.6 89 1.0 E 4 13 2 7 - - 0.4
23/07:00pm 14.4 14.5 12.6 89 1.0 W 4 7 2 4 - - 0.2
23/06:30pm 14.4 14.4 12.4 88 1.1 WSW 4 7 2 4 - - 0.2
23/06:00pm 14.4 13.8 12.4 88 1.1 SW 7 7 4 4 - - 0.0
23/05:30pm 14.6 14.2 12.5 87 1.1 SW 6 7 3 4 - - 0.0
23/05:00pm 14.9 15.3 12.6 86 1.3 S 2 7 1 4 - - 0.0
23/04:30pm 15.0 15.8 12.5 85 1.4 CALM 0 0 0 0 - - 0.0
23/04:00pm 15.0 15.0 12.3 84 1.5 SE 4 7 2 4 - - 0.0
23/03:30pm 14.9 14.3 12.2 84 1.5 ESE 7 9 4 5 - - 0.0
23/03:00pm 15.2 14.6 12.3 83 1.6 SE 7 9 4 5 - - 0.0
23/02:30pm 15.4 14.1 12.5 83 1.6 ESE 11 15 6 8 - - 0.0
23/02:00pm 15.2 12.4 12.5 84 1.5 ESE 19 22 10 12 - - 0.0
23/01:30pm 15.7 12.8 13.0 84 1.5 SSE 20 24 11 13 - - 0.0
23/01:00pm 16.0 13.0 12.6 80 1.9 SSE 20 26 11 14 - - 0.0
23/12:30pm 16.3 14.5 13.2 82 1.7 SSE 15 19 8 10 - - 0.0
23/12:00pm 15.6 12.8 12.7 83 1.6 SSE 19 22 10 12 - - 0.0
23/11:30am 15.6 13.2 12.7 83 1.6 SSE 17 20 9 11 - - 0.0
23/11:00am 15.9 14.2 12.6 81 1.8 SSE 13 17 7 9 - - 0.0
23/10:30am 16.1 15.4 13.2 83 1.6 S 9 11 5 6 - - 0.0
23/10:00am 15.7 15.0 13.2 85 1.4 S 9 13 5 7 - - 0.0
23/09:30am 14.5 12.4 12.4 87 1.1 SSE 15 19 8 10 - - 0.0
23/09:00am 14.0 12.6 12.2 89 1.0 S 11 13 6 7 - - 5.6
23/08:30am 14.3 13.2 13.0 92 0.7 S 11 13 6 7 - - 5.6
23/08:00am 13.5 14.3 12.6 94 0.5 CALM 0 6 0 3 - - 5.6
23/07:30am 12.1 12.5 11.2 94 0.5 CALM 0 0 0 0 - - 5.6
23/07:00am 11.6 10.1 10.7 94 0.5 W 9 11 5 6 - - 5.6
23/06:30am 11.5 10.4 10.6 94 0.5 SW 7 9 4 5 - - 5.6
23/06:00am 11.1 9.5 10.2 94 0.5 SW 9 11 5 6 - - 5.6
23/05:30am 11.7 10.6 10.6 93 0.6 SSW 7 9 4 5 - - 5.6
23/05:00am 11.0 9.9 9.9 93 0.6 WSW 6 9 3 5 - - 5.6
23/04:30am 10.8 9.1 9.7 93 0.6 WSW 9 11 5 6 - - 5.6
23/04:00am 11.1 9.8 10.0 93 0.6 W 7 7 4 4 - - 5.6
23/03:30am 11.2 9.9 10.1 93 0.6 SW 7 9 4 5 - - 5.6
23/03:00am 11.5 10.3 10.4 93 0.6 WSW 7 11 4 6 - - 5.6
23/02:30am 11.6 9.4 10.7 94 0.5 SW 13 15 7 8 - - 5.6
23/02:00am 11.4 9.1 10.3 93 0.6 WSW 13 15 7 8 - - 5.6
23/01:30am 12.1 10.0 11.0 93 0.6 SSW 13 17 7 9 - - 5.6
23/01:00am 12.2 10.1 11.1 93 0.6 SW 13 17 7 9 - - 5.6
23/12:30am 12.1 10.0 11.0 93 0.6 SW 13 17 7 9 - - 5.4
23/12:00am 12.6 10.2 11.5 93 0.6 SW 15 17 8 9 - - 5.4
 
Date/Time
EST
Tmp

°C
App
Tmp
°C
Dew
Point
°C
Rel
Hum
%
Delta-T

°C
Wind Press
QNH
hPa
Press
MSL
hPa
Rain
since
9 am
mm
Dir
 
Spd
km/h
Gust
km/h
Spd
kts
Gust
kts
22/11:30pm 12.9 10.2 11.8 93 0.6 SSW 17 20 9 11 - - 5.4
22/11:00pm 12.6 9.9 11.7 94 0.5 SW 17 20 9 11 - - 5.2
22/10:30pm 12.6 9.8 11.5 93 0.6 WSW 17 22 9 12 - - 5.2
22/10:00pm 12.8 9.7 11.7 93 0.6 SW 19 26 10 14 - - 4.8
22/09:30pm 12.8 10.0 11.5 92 0.7 SW 17 20 9 11 - - 1.2
22/09:00pm 12.9 10.2 11.6 92 0.7 SW 17 22 9 12 - - 0.4
22/08:30pm 12.7 10.3 11.3 91 0.7 SW 15 19 8 10 - - 0.2
22/08:00pm 12.7 10.3 11.4 92 0.7 SW 15 20 8 11 - - 0.2
22/07:30pm 12.7 10.6 11.3 91 0.7 SW 13 15 7 8 - - 0.2
22/07:00pm 13.1 11.1 11.5 90 0.8 SW 13 17 7 9 - - 0.2
22/06:30pm 13.0 10.9 11.2 89 0.9 SW 13 19 7 10 - - 0.2
22/06:00pm 13.7 11.8 11.7 88 1.1 WSW 13 17 7 9 - - 0.2
22/05:30pm 14.2 10.3 12.1 87 1.1 S 24 30 13 16 - - 0.2
22/05:00pm 14.4 11.2 11.9 85 1.3 SSW 20 24 11 13 - - 0.0
22/04:30pm 14.7 11.5 12.0 84 1.5 S 20 24 11 13 - - 0.0
22/04:00pm 15.1 11.3 12.4 84 1.5 S 24 28 13 15 - - 0.0
22/03:30pm 15.4 11.6 12.5 83 1.6 S 24 28 13 15 - - 0.0
22/03:00pm 15.4 12.3 12.2 81 1.7 S 20 24 11 13 - - 0.0
22/02:30pm 15.6 12.5 12.2 80 1.9 S 20 24 11 13 - - 0.0
22/02:00pm 15.6 12.5 12.2 80 1.9 S 20 24 11 13 - - 0.0
22/01:30pm 15.6 12.4 12.0 79 2.0 S 20 26 11 14 - - 0.0
22/01:00pm 15.5 12.3 11.9 79 2.0 S 20 24 11 13 - - 0.0
22/12:30pm 15.1 11.4 11.5 79 1.9 S 22 26 12 14 - - 0.0
22/12:00pm 15.2 11.5 11.6 79 1.9 S 22 28 12 15 - - 0.0
22/11:30am 15.0 10.9 11.6 80 1.8 S 24 26 13 14 - - 0.0
22/11:00am 14.9 10.9 11.7 81 1.7 S 24 28 13 15 - - 0.0
22/10:30am 14.9 11.3 11.9 82 1.6 S 22 26 12 14 - - 0.0
22/10:00am 15.0 11.5 12.1 83 1.6 S 22 28 12 15 - - 0.0
22/09:30am 13.9 12.4 11.9 88 1.1 WSW 11 15 6 8 - - 0.0
22/09:00am 12.7 10.5 10.8 88 1.0 WSW 13 17 7 9 - - 2.4
22/08:30am 13.2 10.6 10.7 85 1.3 SSW 15 19 8 10 - - 2.4
22/08:00am 12.7 9.2 10.2 85 1.3 SSW 19 24 10 13 - - 2.4
22/07:30am 12.3 10.3 10.2 87 1.1 SW 11 15 6 8 - - 2.4
22/07:00am 11.9 9.9 10.0 88 1.0 WSW 11 13 6 7 - - 2.4
22/06:30am 11.7 9.2 9.8 88 1.0 WSW 13 17 7 9 - - 2.4
22/06:00am 11.6 8.8 9.9 89 0.9 SW 15 19 8 10 - - 2.4
22/05:30am 11.8 9.0 10.0 89 0.9 SW 15 19 8 10 - - 2.4
22/05:00am 11.7 8.5 9.9 89 0.9 SW 17 22 9 12 - - 2.4
22/04:30am 11.7 8.8 9.8 88 1.0 SW 15 19 8 10 - - 2.4
22/04:00am 12.0 9.6 10.2 89 0.9 WSW 13 19 7 10 - - 2.4
22/03:30am 12.0 8.9 10.4 90 0.8 SW 17 20 9 11 - - 2.4
22/03:00am 11.9 9.5 10.1 89 0.9 SW 13 17 7 9 - - 2.4
22/02:30am 12.0 8.9 10.4 90 0.8 WSW 17 22 9 12 - - 2.4
22/02:00am 11.8 8.7 10.2 90 0.8 WSW 17 22 9 12 - - 2.4
22/01:30am 11.7 8.9 9.9 89 0.9 WSW 15 19 8 10 - - 2.4
22/01:00am 12.3 9.6 10.2 87 1.1 SW 15 20 8 11 - - 2.4
22/12:30am 12.0 9.6 10.2 89 0.9 WSW 13 20 7 11 - - 2.2
22/12:00am 12.0 9.6 10.2 89 0.9 WSW 13 15 7 8 - - 2.2
 
Date/Time
EST
Tmp

°C
App
Tmp
°C
Dew
Point
°C
Rel
Hum
%
Delta-T

°C
Wind Press
QNH
hPa
Press
MSL
hPa
Rain
since
9 am
mm
Dir
 
Spd
km/h
Gust
km/h
Spd
kts
Gust
kts
21/11:30pm 12.0 10.1 10.4 90 0.8 SW 11 15 6 8 - - 2.2
21/11:00pm 11.9 10.7 10.3 90 0.8 WSW 7 11 4 6 - - 2.2
21/10:30pm 11.8 9.8 10.2 90 0.8 WSW 11 15 6 8 - - 1.8
21/10:00pm 11.9 9.6 10.3 90 0.8 W 13 15 7 8 - - 1.8
21/09:30pm 12.1 11.0 10.0 87 1.1 W 6 9 3 5 - - 1.4
21/09:00pm 12.2 10.5 9.9 86 1.2 SW 9 15 5 8 - - 0.6
21/08:30pm 11.9 9.0 9.5 85 1.2 SW 15 20 8 11 - - 0.6
21/08:00pm 12.9 8.5 10.4 85 1.3 SSW 24 30 13 16 - - 0.2
21/07:30pm 12.9 7.4 10.4 85 1.3 S 30 37 16 20 - - 0.2
21/07:00pm 13.1 6.0 9.7 80 1.7 SSE 37 41 20 22 - - 0.0
21/06:30pm 14.8 10.5 10.8 77 2.1 SSE 24 30 13 16 - - 0.0
21/06:00pm 14.0 11.0 10.6 80 1.8 SW 17 22 9 12 - - 0.0
21/05:30pm 14.1 10.3 11.1 82 1.6 SSW 22 30 12 16 - - 0.0
21/05:00pm 14.2 9.6 11.0 81 1.7 S 26 30 14 16 - - 0.0
21/04:30pm 14.2 8.4 10.8 80 1.8 S 32 37 17 20 - - 0.0
21/04:00pm 14.7 8.9 10.9 78 2.0 S 32 35 17 19 - - 0.0
21/03:30pm 14.7 8.7 10.9 78 2.0 S 33 39 18 21 - - 0.0
21/03:00pm 14.8 8.7 10.4 75 2.3 S 33 39 18 21 - - 0.0
21/02:30pm 15.1 10.4 10.7 75 2.3 S 26 32 14 17 - - 0.0
21/02:00pm 15.2 10.7 10.0 71 2.7 S 24 28 13 15 - - 0.0
21/01:30pm 15.3 11.1 9.9 70 2.8 S 22 26 12 14 - - 0.0
21/01:00pm 15.3 10.9 10.3 72 2.6 S 24 28 13 15 - - 0.0
21/12:30pm 15.0 10.7 10.6 75 2.3 S 24 30 13 16 - - 0.0
21/12:00pm 14.6 11.0 10.4 76 2.2 SSW 20 24 11 13 - - 0.0
21/11:30am 14.2 9.7 10.2 77 2.1 S 24 32 13 17 - - 0.0
21/11:00am 14.9 11.3 10.7 76 2.2 SSW 20 26 11 14 - - 0.0
21/10:30am 14.5 10.8 10.1 75 2.3 SSW 20 26 11 14 - - 0.0
21/10:00am 14.2 9.8 10.4 78 2.0 SSW 24 33 13 18 - - 0.0
21/09:30am 14.1 10.4 10.1 77 2.1 SW 20 28 11 15 - - 0.0
21/09:00am 14.3 10.3 10.3 77 2.1 SW 22 30 12 16 - - 0.0
21/08:30am 13.3 9.1 9.7 79 1.8 SSW 22 28 12 15 - - 0.0
21/08:00am 12.3 9.1 10.0 86 1.2 SW 17 20 9 11 - - 0.0
21/07:30am 10.9 7.8 8.7 86 1.1 SW 15 19 8 10 - - 0.0
21/07:00am 10.8 7.2 8.4 85 1.2 SW 17 20 9 11 - - 0.0
21/06:30am 11.3 7.7 8.3 82 1.5 SW 17 19 9 10 - - 0.0
21/06:00am 11.3 7.6 8.0 80 1.6 SW 17 24 9 13 - - 0.0
21/05:30am 11.4 7.4 8.1 80 1.6 SW 19 24 10 13 - - 0.0
21/05:00am 11.4 7.3 7.7 78 1.8 SW 19 24 10 13 - - 0.0
21/04:30am 11.5 8.1 7.8 78 1.8 SW 15 22 8 12 - - 0.0
21/04:00am 12.0 7.7 7.9 76 2.0 SSW 20 30 11 16 - - 0.0
21/03:30am 12.5 8.8 8.0 74 2.2 SSW 17 26 9 14 - - 0.0
21/03:00am 12.1 8.3 7.4 73 2.3 SSW 17 26 9 14 - - 0.0
21/02:30am 11.1 7.3 5.6 69 2.5 SW 15 19 8 10 - - 0.0
21/02:00am 11.1 7.3 5.6 69 2.5 SW 15 20 8 11 - - 0.0
21/01:30am 11.0 6.8 5.7 70 2.4 SW 17 19 9 10 - - 0.0
21/01:00am 11.7 7.6 6.0 68 2.7 WSW 17 20 9 11 - - 0.0
21/12:30am 11.7 7.6 6.2 69 2.6 SW 17 20 9 11 - - 0.0
21/12:00am 11.7 7.6 6.4 70 2.5 SW 17 20 9 11 - - 0.0
 
Date/Time
EST
Tmp

°C
App
Tmp
°C
Dew
Point
°C
Rel
Hum
%
Delta-T

°C
Wind Press
QNH
hPa
Press
MSL
hPa
Rain
since
9 am
mm
Dir
 
Spd
km/h
Gust
km/h
Spd
kts
Gust
kts
20/11:30pm 11.9 7.9 6.6 70 2.5 SW 17 22 9 12 - - 0.0
20/11:00pm 11.9 7.9 6.8 71 2.4 SW 17 22 9 12 - - 0.0
20/10:30pm 11.8 7.8 6.7 71 2.4 WSW 17 20 9 11 - - 0.0
20/10:00pm 11.8 7.4 6.7 71 2.4 SW 19 22 10 12 - - 0.0
20/09:30pm 11.7 7.7 6.6 71 2.4 SW 17 20 9 11 - - 0.0
20/09:00pm 11.7 8.0 6.4 70 2.5 WSW 15 17 8 9 - - 0.0
20/08:30pm 11.6 7.9 6.3 70 2.5 WSW 15 19 8 10 - - 0.0
20/08:00pm 11.6 8.3 6.3 70 2.5 SW 13 17 7 9 - - 0.0
20/07:30pm 11.9 8.3 6.6 70 2.5 WSW 15 20 8 11 - - 0.0

Latest Capital City Observations: Canberra | Sydney | Melbourne | Brisbane | Adelaide | Perth | Hobart | Darwin

Other Formats:

Comma delimited format used in spreadsheet applications
http://www.bom.gov.au/fwo/IDN60901/IDN60901.94749.axf

JavaScript Object Notation format (JSON) in row-major order
http://www.bom.gov.au/fwo/IDN60901/IDN60901.94749.json